Time;durP1;ratioP1;P1;durP2;ratioP2;P2;SDS_P1;SDS_P2;PMS_P1;PMS_P2;Temp;Humidity;BMP_temperature;BMP_pressure;BME280_temperature;BME280_humidity;BME280_pressure;Samples;Min_cycle;Max_cycle;Signal;HPM_P1;HPM_P2
2021/08/24 00:01:51;;;;;;;;;;;17.50;80.40;;;;;;5047615;28;19955;-78
2021/08/24 00:04:17;;;;;;;;;;;17.60;80.50;;;;;;5047602;28;19925;-78
2021/08/24 00:06:42;;;;;;;;;;;17.60;80.50;;;;;;5047819;28;20378;-78
2021/08/24 00:09:08;;;;;;;;;;;17.50;80.50;;;;;;5046316;28;20291;-77
2021/08/24 00:11:34;;;;;;;;;;;17.50;80.50;;;;;;5046636;28;20018;-79
2021/08/24 00:14:05;;;;;;;;;;;17.60;80.60;;;;;;5046307;28;19905;-78
2021/08/24 00:16:31;;;;;;;;;;;17.60;80.60;;;;;;5046410;28;20279;-79
2021/08/24 00:18:57;;;;;;;;;;;17.50;80.60;;;;;;5047428;28;19916;-79
2021/08/24 00:21:23;;;;;;;;;;;17.50;80.70;;;;;;5047511;28;19920;-78
2021/08/24 00:23:48;;;;;;;;;;;17.40;80.80;;;;;;5048112;28;20016;-78
2021/08/24 00:26:14;;;;;;;;;;;17.40;81.00;;;;;;5051479;28;20374;-78
2021/08/24 00:28:39;;;;;;;;;;;17.40;81.30;;;;;;5051325;28;19916;-79
2021/08/24 00:31:05;;;;;;;;;;;17.40;81.40;;;;;;5033387;28;19909;-79
2021/08/24 00:33:31;;;;;;;;;;;17.40;81.40;;;;;;5050199;28;19931;-78
2021/08/24 00:35:56;;;;;;;;;;;17.40;81.40;;;;;;5051143;28;20076;-79
2021/08/24 00:38:23;;;;;;;;;;;17.40;81.40;;;;;;5049926;28;19917;-79
2021/08/24 00:40:56;;;;;;;;;;;17.40;81.30;;;;;;5051090;28;20009;-79
2021/08/24 00:43:23;;;;;;;;;;;17.40;81.30;;;;;;5050788;28;20333;-79
2021/08/24 00:45:51;;;;;;;;;;;17.50;81.20;;;;;;5051107;28;19986;-79
2021/08/24 00:48:18;;;;;;;;;;;17.50;81.10;;;;;;5049656;28;19909;-78
2021/08/24 00:50:45;;;;;;;;;;;17.50;81.10;;;;;;5051014;28;19904;-79
2021/08/24 00:53:12;;;;;;;;;;;17.50;81.30;;;;;;5049658;28;19905;-78
2021/08/24 00:55:39;;;;;;;;;;;17.60;81.30;;;;;;5049443;28;19958;-78
2021/08/24 00:58:05;;;;;;;;;;;17.60;81.30;;;;;;5050806;28;20386;-77
2021/08/24 01:00:31;;;;;;;;;;;17.50;81.30;;;;;;5049482;28;19915;-77
2021/08/24 01:02:59;;;;;;;;;;;17.40;81.50;;;;;;5050835;28;19917;-78
2021/08/24 01:05:26;;;;;;;;;;;17.40;81.70;;;;;;5049271;28;19912;-77
2021/08/24 01:08:04;;;;;;;;;;;17.40;81.80;;;;;;5049291;28;19912;-79
2021/08/24 01:10:41;;;;;;;;;;;17.50;81.90;;;;;;5049765;28;20267;-79
2021/08/24 01:13:10;;;;;;;;;;;17.50;81.80;;;;;;5049539;28;19904;-79
2021/08/24 01:15:36;;;;;;;;;;;17.60;81.70;;;;;;5050603;28;19905;-79
2021/08/24 01:18:07;;;;;;;;;;;17.50;81.80;;;;;;5048980;28;20137;-79
2021/08/24 01:20:51;;;;;;;;;;;17.60;81.90;;;;;;5050458;28;19925;-78
2021/08/24 01:23:35;;;;;;;;;;;17.60;81.70;;;;;;5050303;28;20414;-78
2021/08/24 01:26:18;;;;;;;;;;;17.60;81.60;;;;;;5049018;28;19966;-77
2021/08/24 01:28:46;;;;;;;;;;;17.60;81.70;;;;;;5050234;28;19904;-79
2021/08/24 01:31:40;;;;;;;;;;;17.60;81.70;;;;;;5048882;28;19905;-79
2021/08/24 01:34:09;;;;;;;;;;;17.60;81.80;;;;;;5048651;28;19905;-78
2021/08/24 01:36:42;;;;;;;;;;;17.60;81.70;;;;;;5048048;28;19944;-78
2021/08/24 01:39:13;;;;;;;;;;;17.50;81.90;;;;;;5048896;28;19905;-78
2021/08/24 01:41:53;;;;;;;;;;;17.50;82.00;;;;;;5049965;28;19940;-79
2021/08/24 01:44:20;;;;;;;;;;;17.50;81.90;;;;;;5049804;28;19905;-78
2021/08/24 01:46:49;;;;;;;;;;;17.40;82.10;;;;;;5049910;28;19911;-79
2021/08/24 01:49:16;;;;;;;;;;;17.40;82.10;;;;;;5048455;28;20402;-78
2021/08/24 01:51:44;;;;;;;;;;;17.40;82.20;;;;;;5049867;28;19905;-79
2021/08/24 01:54:13;;;;;;;;;;;17.40;82.30;;;;;;5049773;28;19904;-79
2021/08/24 01:56:39;;;;;;;;;;;17.40;82.50;;;;;;5049555;28;19905;-79
2021/08/24 01:59:11;;;;;;;;;;;17.40;82.50;;;;;;5049569;28;19915;-78
2021/08/24 02:01:42;;;;;;;;;;;17.40;82.50;;;;;;5048124;28;19913;-77
2021/08/24 02:04:11;;;;;;;;;;;17.30;82.40;;;;;;5049547;28;20357;-78
2021/08/24 02:06:38;;;;;;;;;;;17.30;82.60;;;;;;5048133;28;20355;-79
2021/08/24 02:09:06;;;;;;;;;;;17.30;82.80;;;;;;5048451;28;19908;-79
2021/08/24 02:11:32;;;;;;;;;;;17.30;82.70;;;;;;5049383;28;19905;-79
2021/08/24 02:13:59;;;;;;;;;;;17.30;82.60;;;;;;5049173;28;20260;-79
2021/08/24 02:16:25;;;;;;;;;;;17.30;82.60;;;;;;5049184;28;20011;-79
2021/08/24 02:19:11;;;;;;;;;;;17.30;82.80;;;;;;5049180;28;20425;-79
2021/08/24 02:21:55;;;;;;;;;;;17.30;83.00;;;;;;5049019;28;19923;-76
2021/08/24 02:24:24;;;;;;;;;;;17.30;83.00;;;;;;5049181;28;20294;-78
2021/08/24 02:26:50;;;;;;;;;;;17.40;82.80;;;;;;5049022;28;19936;-79
2021/08/24 02:29:16;;;;;;;;;;;17.40;82.90;;;;;;5031275;28;19915;-77
2021/08/24 02:32:17;;;;;;;;;;;17.40;82.90;;;;;;5049056;28;19909;-77
2021/08/24 02:34:53;;;;;;;;;;;17.40;82.80;;;;;;5046460;28;20306;-78
2021/08/24 02:37:31;;;;;;;;;;;17.40;83.00;;;;;;5048452;28;19904;-79
2021/08/24 02:40:06;;;;;;;;;;;17.40;83.00;;;;;;5048889;28;19908;-78
2021/08/24 02:42:36;;;;;;;;;;;17.50;83.00;;;;;;5048715;28;19909;-78
2021/08/24 02:45:06;;;;;;;;;;;17.50;83.00;;;;;;5047193;28;19992;-78
2021/08/24 02:47:32;;;;;;;;;;;17.40;83.00;;;;;;5047237;28;19905;-77
2021/08/24 02:49:57;;;;;;;;;;;17.40;83.20;;;;;;5047429;28;19930;-78
2021/08/24 02:52:23;;;;;;;;;;;17.40;83.30;;;;;;5048684;28;19987;-78
2021/08/24 02:54:51;;;;;;;;;;;17.30;83.40;;;;;;5048402;28;19931;-78
2021/08/24 02:57:16;;;;;;;;;;;17.30;83.60;;;;;;5048545;28;20330;-78
2021/08/24 02:59:42;;;;;;;;;;;17.20;83.70;;;;;;5047270;28;19908;-77
2021/08/24 03:02:08;;;;;;;;;;;17.30;83.90;;;;;;5047268;28;19970;-78
2021/08/24 03:04:34;;;;;;;;;;;17.30;83.80;;;;;;5047174;28;19913;-79
2021/08/24 03:07:04;;;;;;;;;;;17.30;83.80;;;;;;5047218;28;19911;-78
2021/08/24 03:09:31;;;;;;;;;;;17.30;83.90;;;;;;5048484;28;19943;-79
2021/08/24 03:12:17;;;;;;;;;;;17.30;83.70;;;;;;5048325;28;19944;-78
2021/08/24 03:14:55;;;;;;;;;;;17.40;83.90;;;;;;5036143;28;19905;-78
2021/08/24 03:17:28;;;;;;;;;;;17.40;83.80;;;;;;5046960;28;20303;-79
2021/08/24 03:19:55;;;;;;;;;;;17.50;83.60;;;;;;5048003;28;19917;-77
2021/08/24 03:22:21;;;;;;;;;;;17.40;83.40;;;;;;5046713;28;20310;-78
2021/08/24 03:24:47;;;;;;;;;;;17.40;83.40;;;;;;5046965;28;19908;-78
2021/08/24 03:27:13;;;;;;;;;;;17.50;83.50;;;;;;5046816;28;19927;-78
2021/08/24 03:29:38;;;;;;;;;;;17.50;83.50;;;;;;5048157;28;19999;-77
2021/08/24 03:32:05;;;;;;;;;;;17.50;83.50;;;;;;5046862;28;19908;-78
2021/08/24 03:34:31;;;;;;;;;;;17.40;83.50;;;;;;5047942;28;19932;-78
2021/08/24 03:36:57;;;;;;;;;;;17.30;83.50;;;;;;5048032;28;19944;-79
2021/08/24 03:39:23;;;;;;;;;;;17.30;83.80;;;;;;5046733;28;19909;-78
2021/08/24 03:41:48;;;;;;;;;;;17.20;84.00;;;;;;5046729;28;19916;-78
2021/08/24 03:44:14;;;;;;;;;;;17.20;84.10;;;;;;5047905;28;20143;-79
2021/08/24 03:46:40;;;;;;;;;;;17.20;84.10;;;;;;5047811;28;19932;-78
2021/08/24 03:49:05;;;;;;;;;;;17.20;84.60;;;;;;5047828;28;20275;-78
2021/08/24 03:51:31;;;;;;;;;;;17.20;84.40;;;;;;5029669;28;19916;-79
2021/08/24 03:53:56;;;;;;;;;;;17.20;84.20;;;;;;5046364;28;20026;-78
2021/08/24 03:56:22;;;;;;;;;;;17.10;84.10;;;;;;5047760;28;19916;-78
2021/08/24 03:58:47;;;;;;;;;;;17.20;84.20;;;;;;5048286;28;19932;-77
2021/08/24 04:01:14;;;;;;;;;;;17.20;84.20;;;;;;5050257;28;20365;-78
2021/08/24 04:03:40;;;;;;;;;;;17.20;84.20;;;;;;5050443;28;19904;-78
2021/08/24 04:06:06;;;;;;;;;;;17.10;84.30;;;;;;5050945;28;19991;-77
2021/08/24 04:08:31;;;;;;;;;;;17.10;84.30;;;;;;5050493;28;19909;-78
2021/08/24 04:10:57;;;;;;;;;;;17.10;84.40;;;;;;5050469;28;19956;-77
2021/08/24 04:13:23;;;;;;;;;;;17.00;84.50;;;;;;5050289;28;19909;-78
2021/08/24 04:15:48;;;;;;;;;;;17.10;84.70;;;;;;5051648;28;19982;-78
2021/08/24 04:18:15;;;;;;;;;;;17.10;84.60;;;;;;5050148;28;20325;-78
2021/08/24 04:20:41;;;;;;;;;;;17.10;84.50;;;;;;5050293;28;19916;-79
2021/08/24 04:23:08;;;;;;;;;;;17.10;84.60;;;;;;5050130;28;20383;-79
2021/08/24 04:25:33;;;;;;;;;;;17.10;84.50;;;;;;5050133;28;19912;-78
2021/08/24 04:27:59;;;;;;;;;;;17.10;84.60;;;;;;5051393;28;19921;-79
2021/08/24 04:30:24;;;;;;;;;;;17.10;84.70;;;;;;5050108;28;19913;-77
2021/08/24 04:32:50;;;;;;;;;;;17.10;84.60;;;;;;5050218;28;19909;-79
2021/08/24 04:35:18;;;;;;;;;;;17.10;84.60;;;;;;5049959;28;19909;-78
2021/08/24 04:37:44;;;;;;;;;;;17.10;84.70;;;;;;5051127;28;19915;-78
2021/08/24 04:40:10;;;;;;;;;;;17.10;84.70;;;;;;5049650;28;19961;-79
2021/08/24 04:42:35;;;;;;;;;;;17.10;84.80;;;;;;5049851;28;19920;-79
2021/08/24 04:45:01;;;;;;;;;;;17.10;84.80;;;;;;5049696;28;19912;-77
2021/08/24 04:47:27;;;;;;;;;;;17.10;84.80;;;;;;5051002;28;19908;-77
2021/08/24 04:49:52;;;;;;;;;;;17.10;84.80;;;;;;5049704;28;19983;-78
2021/08/24 04:52:18;;;;;;;;;;;17.10;85.00;;;;;;5050833;28;19913;-79
2021/08/24 04:54:43;;;;;;;;;;;17.10;85.10;;;;;;5032891;28;19920;-79
2021/08/24 04:57:09;;;;;;;;;;;17.10;85.00;;;;;;5050811;28;19908;-79
2021/08/24 04:59:34;;;;;;;;;;;17.10;85.00;;;;;;5049663;28;19911;-79
2021/08/24 05:02:00;;;;;;;;;;;17.00;85.20;;;;;;5032904;28;19917;-77
2021/08/24 05:04:26;;;;;;;;;;;17.00;85.50;;;;;;5049551;28;19912;-79
2021/08/24 05:06:52;;;;;;;;;;;17.10;85.40;;;;;;5050709;28;20370;-77
2021/08/24 05:09:18;;;;;;;;;;;17.10;85.70;;;;;;5048993;28;19931;-78
2021/08/24 05:11:44;;;;;;;;;;;17.10;85.30;;;;;;5048784;28;20355;-79
2021/08/24 05:14:11;;;;;;;;;;;17.10;85.30;;;;;;5050636;28;19971;-79
2021/08/24 05:16:38;;;;;;;;;;;17.20;85.40;;;;;;5050541;28;19904;-77
2021/08/24 05:19:04;;;;;;;;;;;17.20;85.20;;;;;;5046044;28;19916;-78
2021/08/24 05:21:30;;;;;;;;;;;17.20;85.00;;;;;;5048832;28;20293;-78
2021/08/24 05:23:56;;;;;;;;;;;17.30;85.10;;;;;;5050131;28;19905;-79
2021/08/24 05:26:22;;;;;;;;;;;17.30;85.10;;;;;;5050052;28;20256;-79
2021/08/24 05:28:48;;;;;;;;;;;17.30;84.90;;;;;;5050029;28;19944;-80
2021/08/24 05:31:13;;;;;;;;;;;17.30;84.90;;;;;;5050063;28;19913;-78
2021/08/24 05:33:39;;;;;;;;;;;17.30;85.00;;;;;;5048655;28;19911;-79
2021/08/24 05:36:05;;;;;;;;;;;17.20;85.00;;;;;;5032114;28;19912;-78
2021/08/24 05:38:31;;;;;;;;;;;17.30;85.20;;;;;;5050057;28;19904;-78
2021/08/24 05:40:57;;;;;;;;;;;17.20;85.10;;;;;;5032258;28;19908;-78
2021/08/24 05:43:23;;;;;;;;;;;17.20;85.30;;;;;;5048355;28;19985;-79
2021/08/24 05:45:55;;;;;;;;;;;17.20;85.30;;;;;;5049984;28;19943;-79
2021/08/24 05:48:21;;;;;;;;;;;17.20;85.40;;;;;;5049692;28;19944;-79
2021/08/24 05:50:47;;;;;;;;;;;17.20;85.40;;;;;;5049904;28;19946;-79
2021/08/24 05:53:12;;;;;;;;;;;17.20;85.30;;;;;;5050001;28;19913;-78
2021/08/24 05:55:38;;;;;;;;;;;17.20;85.40;;;;;;5048300;28;19909;-79
2021/08/24 05:58:04;;;;;;;;;;;17.20;85.40;;;;;;5049257;28;19912;-78
2021/08/24 06:00:29;;;;;;;;;;;17.20;85.50;;;;;;5031788;28;19944;-79
2021/08/24 06:02:55;;;;;;;;;;;17.20;85.70;;;;;;5048153;28;19928;-78
2021/08/24 06:05:21;;;;;;;;;;;17.30;85.60;;;;;;5047908;28;19909;-79
2021/08/24 06:07:46;;;;;;;;;;;17.20;85.50;;;;;;5048311;28;19935;-78
2021/08/24 06:10:12;;;;;;;;;;;17.20;85.50;;;;;;5048171;28;19916;-79
2021/08/24 06:12:37;;;;;;;;;;;17.10;85.60;;;;;;5049009;28;19967;-77
2021/08/24 06:15:04;;;;;;;;;;;17.00;85.80;;;;;;5049071;28;19915;-79
2021/08/24 06:17:30;;;;;;;;;;;17.10;86.00;;;;;;5047884;28;19912;-79
2021/08/24 06:19:55;;;;;;;;;;;17.10;86.10;;;;;;5045530;28;19921;-76
2021/08/24 06:22:21;;;;;;;;;;;17.10;86.00;;;;;;5047452;28;19932;-79
2021/08/24 06:24:46;;;;;;;;;;;17.20;86.20;;;;;;5049293;28;20287;-78
2021/08/24 06:27:12;;;;;;;;;;;17.30;86.20;;;;;;5048912;28;19912;-78
2021/08/24 06:29:37;;;;;;;;;;;17.40;86.10;;;;;;5047515;28;19985;-79
2021/08/24 06:32:05;;;;;;;;;;;17.40;86.00;;;;;;5030876;28;20373;-78
2021/08/24 06:34:31;;;;;;;;;;;17.30;85.80;;;;;;5048352;28;19972;-79
2021/08/24 06:36:56;;;;;;;;;;;17.30;85.90;;;;;;5030839;28;20317;-77
2021/08/24 06:39:22;;;;;;;;;;;17.30;86.00;;;;;;5031123;28;20310;-77
2021/08/24 06:41:47;;;;;;;;;;;17.30;85.90;;;;;;5047438;28;19963;-77
2021/08/24 06:44:13;;;;;;;;;;;17.30;86.00;;;;;;5047345;28;20418;-78
2021/08/24 06:46:39;;;;;;;;;;;17.30;86.10;;;;;;5030789;28;19909;-77
2021/08/24 06:49:05;;;;;;;;;;;17.30;86.20;;;;;;5030604;28;20086;-77
2021/08/24 06:51:31;;;;;;;;;;;17.30;86.20;;;;;;5048323;28;19905;-79
2021/08/24 06:53:56;;;;;;;;;;;17.30;86.30;;;;;;5047028;28;19916;-79
2021/08/24 06:56:22;;;;;;;;;;;17.30;86.40;;;;;;5046862;28;19999;-78
2021/08/24 06:58:48;;;;;;;;;;;17.30;86.50;;;;;;5048337;28;19905;-78
2021/08/24 07:01:17;;;;;;;;;;;17.30;86.60;;;;;;5047022;28;19963;-78
2021/08/24 07:03:43;;;;;;;;;;;17.40;86.80;;;;;;5048185;28;19920;-79
2021/08/24 07:06:09;;;;;;;;;;;17.50;86.70;;;;;;5046884;28;19908;-79
2021/08/24 07:08:34;;;;;;;;;;;17.50;86.60;;;;;;5047597;28;19905;-78
2021/08/24 07:11:00;;;;;;;;;;;17.50;86.60;;;;;;5030425;28;19913;-78
2021/08/24 07:13:27;;;;;;;;;;;17.60;86.80;;;;;;5047164;28;19913;-77
2021/08/24 07:15:54;;;;;;;;;;;17.60;87.00;;;;;;5046619;28;19912;-79
2021/08/24 07:18:19;;;;;;;;;;;17.70;86.90;;;;;;5046308;28;19905;-79
2021/08/24 07:20:48;;;;;;;;;;;17.80;86.80;;;;;;5027487;28;20327;-79
2021/08/24 07:23:14;;;;;;;;;;;17.90;86.60;;;;;;5046456;28;19970;-79
2021/08/24 07:25:39;;;;;;;;;;;17.90;86.80;;;;;;5046708;28;20372;-78
2021/08/24 07:28:10;;;;;;;;;;;18.00;86.80;;;;;;5046767;28;20311;-78
2021/08/24 07:30:36;;;;;;;;;;;18.10;86.60;;;;;;5048131;28;19935;-77
2021/08/24 07:33:02;;;;;;;;;;;18.30;86.70;;;;;;5047299;28;20015;-77
2021/08/24 07:35:27;;;;;;;;;;;18.30;86.60;;;;;;5046592;28;20426;-78
2021/08/24 07:37:55;;;;;;;;;;;18.30;86.80;;;;;;5046589;28;19912;-77
2021/08/24 07:40:21;;;;;;;;;;;18.50;86.90;;;;;;5047785;28;19909;-79
2021/08/24 07:42:47;;;;;;;;;;;18.50;86.60;;;;;;5047658;28;19909;-79
2021/08/24 07:45:13;;;;;;;;;;;18.60;86.60;;;;;;5046388;28;20290;-78
2021/08/24 07:47:38;;;;;;;;;;;18.70;86.40;;;;;;5047577;28;19911;-78
2021/08/24 07:50:05;;;;;;;;;;;18.60;86.50;;;;;;5047464;28;19909;-78
2021/08/24 07:52:30;;;;;;;;;;;18.60;86.80;;;;;;5047658;28;20267;-78
2021/08/24 07:54:56;;;;;;;;;;;18.60;86.90;;;;;;5046302;28;19959;-77
2021/08/24 07:57:21;;;;;;;;;;;18.80;87.00;;;;;;5047597;28;20011;-78
2021/08/24 07:59:48;;;;;;;;;;;18.90;86.70;;;;;;5045780;28;19916;-78
2021/08/24 08:02:14;;;;;;;;;;;19.00;86.50;;;;;;5046380;28;19955;-78
2021/08/24 08:04:40;;;;;;;;;;;19.00;86.50;;;;;;5047358;28;19905;-77
2021/08/24 08:07:06;;;;;;;;;;;19.10;86.40;;;;;;5046188;28;19905;-77
2021/08/24 08:09:31;;;;;;;;;;;19.20;86.20;;;;;;5046133;28;19912;-77
2021/08/24 08:11:57;;;;;;;;;;;19.10;86.50;;;;;;5046267;28;19983;-78
2021/08/24 08:14:22;;;;;;;;;;;19.10;86.80;;;;;;5029457;28;20464;-78
2021/08/24 08:16:48;;;;;;;;;;;19.20;87.00;;;;;;5046122;28;20345;-79
2021/08/24 08:19:14;;;;;;;;;;;19.20;86.90;;;;;;5046887;28;19915;-79
2021/08/24 08:21:40;;;;;;;;;;;19.10;87.20;;;;;;5045377;28;19927;-78
2021/08/24 08:24:06;;;;;;;;;;;19.10;87.50;;;;;;5045575;28;19913;-78
2021/08/24 08:26:32;;;;;;;;;;;19.20;87.70;;;;;;5045453;28;19937;-80
2021/08/24 08:28:58;;;;;;;;;;;19.30;87.50;;;;;;5046487;28;20346;-77
2021/08/24 08:31:24;;;;;;;;;;;19.40;87.50;;;;;;5046141;28;19939;-77
2021/08/24 08:33:50;;;;;;;;;;;19.50;87.50;;;;;;5046753;28;20390;-78
2021/08/24 08:36:16;;;;;;;;;;;19.60;87.50;;;;;;5045828;28;19963;-79
2021/08/24 08:38:42;;;;;;;;;;;19.80;87.60;;;;;;5047221;28;20287;-78
2021/08/24 08:41:25;;;;;;;;;;;19.80;87.10;;;;;;5028935;28;19909;-78
2021/08/24 08:43:56;;;;;;;;;;;19.80;86.90;;;;;;5047082;28;19990;-78
2021/08/24 08:46:28;;;;;;;;;;;19.80;87.30;;;;;;5049165;28;19948;-78
2021/08/24 08:49:07;;;;;;;;;;;19.80;87.60;;;;;;5050815;28;20221;-77
2021/08/24 08:51:38;;;;;;;;;;;20.00;88.00;;;;;;5050609;28;19905;-77
2021/08/24 08:54:10;;;;;;;;;;;20.10;87.80;;;;;;5049221;28;19955;-77
2021/08/24 08:56:36;;;;;;;;;;;20.10;87.60;;;;;;5048981;28;19955;-77
2021/08/24 08:59:08;;;;;;;;;;;20.30;87.50;;;;;;5048556;28;19952;-77
2021/08/24 09:01:39;;;;;;;;;;;20.40;87.60;;;;;;5048659;28;19915;-79
2021/08/24 09:04:05;;;;;;;;;;;20.50;87.50;;;;;;5048716;28;19996;-77
2021/08/24 09:06:30;;;;;;;;;;;20.50;87.40;;;;;;5045480;28;20375;-77
2021/08/24 09:08:57;;;;;;;;;;;20.60;87.40;;;;;;5021378;28;19953;-78
2021/08/24 09:11:27;;;;;;;;;;;20.60;87.50;;;;;;5040024;28;20283;-78
2021/08/24 09:13:55;;;;;;;;;;;20.60;87.40;;;;;;5040411;28;19905;-80
2021/08/24 09:16:30;;;;;;;;;;;20.60;87.80;;;;;;5034377;28;19921;-78
2021/08/24 09:19:01;;;;;;;;;;;20.70;88.00;;;;;;5029670;28;19992;-80
2021/08/24 09:21:33;;;;;;;;;;;20.80;88.10;;;;;;5030305;28;19912;-80
2021/08/24 09:24:03;;;;;;;;;;;21.00;87.90;;;;;;5030269;28;19911;-78
2021/08/24 09:27:04;;;;;;;;;;;21.10;87.60;;;;;;5032047;28;19905;-77
2021/08/24 09:29:36;;;;;;;;;;;21.10;87.70;;;;;;5010189;28;20375;-77
2021/08/24 09:32:02;;;;;;;;;;;21.20;87.80;;;;;;5040678;28;19905;-77
2021/08/24 09:34:29;;;;;;;;;;;21.20;87.80;;;;;;5031909;28;19955;-79
2021/08/24 09:36:54;;;;;;;;;;;21.30;88.10;;;;;;5030555;28;19947;-80
2021/08/24 09:39:38;;;;;;;;;;;21.40;88.30;;;;;;5014017;28;19941;-78
2021/08/24 09:42:08;;;;;;;;;;;21.70;88.10;;;;;;5030254;28;19917;-78
2021/08/24 09:44:33;;;;;;;;;;;22.00;88.20;;;;;;5042060;28;19926;-78
2021/08/24 09:47:04;;;;;;;;;;;22.30;88.30;;;;;;5030006;28;20059;-79
2021/08/24 09:49:33;;;;;;;;;;;22.60;87.80;;;;;;5036936;28;19911;-79
2021/08/24 09:52:01;;;;;;;;;;;22.70;87.70;;;;;;5050958;28;19905;-77
2021/08/24 09:54:32;;;;;;;;;;;22.90;87.70;;;;;;5050601;28;19996;-78
2021/08/24 09:57:00;;;;;;;;;;;23.10;88.00;;;;;;5037322;28;19968;-79
2021/08/24 09:59:28;;;;;;;;;;;23.70;89.10;;;;;;5040467;28;19983;-77
2021/08/24 10:01:54;;;;;;;;;;;24.80;88.90;;;;;;5030249;28;19917;-79
2021/08/24 10:04:19;;;;;;;;;;;26.20;88.10;;;;;;5043831;28;20279;-83
2021/08/24 10:06:53;;;;;;;;;;;27.40;87.50;;;;;;5036039;28;19905;-78
2021/08/24 10:09:28;;;;;;;;;;;28.40;85.90;;;;;;5040915;28;19947;-78
2021/08/24 10:12:11;;;;;;;;;;;28.40;83.80;;;;;;5047494;28;19947;-80
2021/08/24 10:14:37;;;;;;;;;;;28.00;83.30;;;;;;5045511;28;19969;-81
2021/08/24 10:17:09;;;;;;;;;;;28.30;84.40;;;;;;5039667;28;19912;-79
2021/08/24 10:19:40;;;;;;;;;;;29.20;86.10;;;;;;5038856;28;19912;-78
2021/08/24 10:22:14;;;;;;;;;;;30.20;85.60;;;;;;5039145;28;19993;-79
2021/08/24 10:24:52;;;;;;;;;;;31.10;85.00;;;;;;5042187;28;19912;-79
2021/08/24 10:27:23;;;;;;;;;;;31.60;83.70;;;;;;5041829;28;20000;-77
2021/08/24 10:29:50;;;;;;;;;;;32.00;83.60;;;;;;5039580;28;19905;-80
2021/08/24 10:32:23;;;;;;;;;;;32.60;83.90;;;;;;5050798;28;19983;-78
2021/08/24 10:34:49;;;;;;;;;;;32.50;82.30;;;;;;5033628;28;19905;-80
2021/08/24 10:37:23;;;;;;;;;;;32.50;82.50;;;;;;5047542;28;19964;-79
2021/08/24 10:39:49;;;;;;;;;;;32.50;82.10;;;;;;5039862;28;19905;-79
2021/08/24 10:42:14;;;;;;;;;;;32.90;81.80;;;;;;5048147;28;19908;-78
2021/08/24 10:44:49;;;;;;;;;;;33.40;81.30;;;;;;5051497;28;19918;-83
2021/08/24 10:47:34;;;;;;;;;;;33.70;81.60;;;;;;5041070;28;19929;-78
2021/08/24 10:50:00;;;;;;;;;;;34.20;81.20;;;;;;5038397;28;19931;-78
2021/08/24 10:52:45;;;;;;;;;;;34.40;80.70;;;;;;5037425;28;19975;-77
2021/08/24 10:55:13;;;;;;;;;;;34.40;79.70;;;;;;5038961;28;20007;-80
2021/08/24 10:57:45;;;;;;;;;;;34.60;78.30;;;;;;5034566;28;19916;-77
2021/08/24 11:00:10;;;;;;;;;;;34.60;76.80;;;;;;5040670;28;19999;-82
2021/08/24 11:02:36;;;;;;;;;;;34.50;77.20;;;;;;5046370;28;20008;-82
2021/08/24 11:05:20;;;;;;;;;;;34.40;76.60;;;;;;5042566;28;19905;-80
2021/08/24 11:07:58;;;;;;;;;;;34.20;76.60;;;;;;5027029;28;19905;-77
2021/08/24 11:10:33;;;;;;;;;;;34.30;77.00;;;;;;5028872;28;19949;-77
2021/08/24 11:13:15;;;;;;;;;;;34.60;76.90;;;;;;5028133;28;19905;-78
2021/08/24 11:15:43;;;;;;;;;;;35.00;76.90;;;;;;5027754;28;20325;-76
2021/08/24 11:18:16;;;;;;;;;;;35.20;75.80;;;;;;5028395;28;19947;-76
2021/08/24 11:20:49;;;;;;;;;;;35.30;72.90;;;;;;5039002;28;19974;-75
2021/08/24 11:23:17;;;;;;;;;;;35.20;71.60;;;;;;5036542;28;19955;-76
2021/08/24 11:25:46;;;;;;;;;;;34.70;70.60;;;;;;5037913;28;20322;-73
2021/08/24 11:28:35;;;;;;;;;;;34.40;69.90;;;;;;5040968;28;19905;-76
2021/08/24 11:31:03;;;;;;;;;;;34.20;66.00;;;;;;5033009;28;20703;-76
2021/08/24 11:33:38;;;;;;;;;;;33.90;66.70;;;;;;5032718;28;20004;-81
2021/08/24 11:36:06;;;;;;;;;;;33.80;66.80;;;;;;5039798;28;19959;-80
2021/08/24 11:38:36;;;;;;;;;;;34.00;65.80;;;;;;5035391;28;19905;-81
2021/08/24 11:41:10;;;;;;;;;;;33.90;66.00;;;;;;5044350;28;19912;-78
2021/08/24 11:43:55;;;;;;;;;;;33.70;63.00;;;;;;5041455;28;19909;-78
2021/08/24 11:46:44;;;;;;;;;;;33.50;64.20;;;;;;5035135;28;19955;-81
2021/08/24 11:49:14;;;;;;;;;;;33.60;64.30;;;;;;5029944;28;20452;-78
2021/08/24 11:51:44;;;;;;;;;;;33.70;63.70;;;;;;5028778;28;19905;-82
2021/08/24 11:54:15;;;;;;;;;;;33.80;64.50;;;;;;5038310;28;19949;-82
2021/08/24 11:56:46;;;;;;;;;;;34.00;64.60;;;;;;5043743;28;19972;-82
2021/08/24 11:59:24;;;;;;;;;;;34.00;64.60;;;;;;5042947;28;19955;-81
2021/08/24 12:01:49;;;;;;;;;;;34.30;64.90;;;;;;5037825;28;19913;-80
2021/08/24 12:04:18;;;;;;;;;;;34.40;63.40;;;;;;5033320;28;19916;-81
2021/08/24 12:06:47;;;;;;;;;;;34.10;63.30;;;;;;5035712;28;19909;-81
2021/08/24 12:09:39;;;;;;;;;;;33.80;63.60;;;;;;5031223;28;20274;-81
2021/08/24 12:12:06;;;;;;;;;;;33.70;64.80;;;;;;5033424;28;19947;-81
2021/08/24 12:14:33;;;;;;;;;;;33.70;63.20;;;;;;5048715;28;19936;-79
2021/08/24 12:17:14;;;;;;;;;;;33.50;62.60;;;;;;5034515;28;19916;-79
2021/08/24 12:19:51;;;;;;;;;;;33.50;62.60;;;;;;5031658;28;19924;-79
2021/08/24 12:22:16;;;;;;;;;;;33.70;62.50;;;;;;5041727;28;19917;-76
2021/08/24 12:25:04;;;;;;;;;;;33.80;62.00;;;;;;5031715;28;20417;-77
2021/08/24 12:27:30;;;;;;;;;;;33.60;61.70;;;;;;5030567;28;19912;-76
2021/08/24 12:30:13;;;;;;;;;;;33.50;62.20;;;;;;5032225;28;19996;-79
2021/08/24 12:32:38;;;;;;;;;;;33.50;62.10;;;;;;5034129;28;19936;-80
2021/08/24 12:35:07;;;;;;;;;;;33.20;61.70;;;;;;5047772;28;19952;-79
2021/08/24 12:37:32;;;;;;;;;;;33.10;61.90;;;;;;5041375;28;20387;-77
2021/08/24 12:40:21;;;;;;;;;;;33.20;61.60;;;;;;5042567;28;19905;-78
2021/08/24 12:43:02;;;;;;;;;;;32.80;59.70;;;;;;5045839;28;19978;-78
2021/08/24 12:45:29;;;;;;;;;;;32.30;60.70;;;;;;5040908;28;19905;-78
2021/08/24 12:48:15;;;;;;;;;;;32.00;60.90;;;;;;5042859;28;20010;-77
2021/08/24 12:50:40;;;;;;;;;;;31.80;60.80;;;;;;5041615;28;19996;-77
2021/08/24 12:53:24;;;;;;;;;;;31.70;60.90;;;;;;5035030;28;19960;-78
2021/08/24 12:55:50;;;;;;;;;;;31.80;61.40;;;;;;5039297;28;19912;-77
2021/08/24 12:58:17;;;;;;;;;;;32.00;61.00;;;;;;5038210;28;19904;-77
2021/08/24 13:00:44;;;;;;;;;;;32.20;60.80;;;;;;5037061;28;19978;-84
2021/08/24 13:03:16;;;;;;;;;;;32.30;59.90;;;;;;5036724;28;19947;-80
2021/08/24 13:05:41;;;;;;;;;;;32.20;59.90;;;;;;5041149;28;19920;-75
2021/08/24 13:08:19;;;;;;;;;;;32.00;59.80;;;;;;5040361;28;19909;-79
2021/08/24 13:10:46;;;;;;;;;;;32.00;59.70;;;;;;5044631;28;19905;-80
2021/08/24 13:13:27;;;;;;;;;;;31.70;58.80;;;;;;5034999;28;19943;-78
2021/08/24 13:16:00;;;;;;;;;;;31.30;58.90;;;;;;5038964;28;19905;-76
2021/08/24 13:18:31;;;;;;;;;;;31.10;59.00;;;;;;5035090;28;19905;-77
2021/08/24 13:21:11;;;;;;;;;;;30.90;59.00;;;;;;5033284;28;19958;-76
2021/08/24 13:23:37;;;;;;;;;;;30.70;58.70;;;;;;5034069;28;20371;-75
2021/08/24 13:26:20;;;;;;;;;;;30.60;58.70;;;;;;5039315;28;19927;-77
2021/08/24 13:28:51;;;;;;;;;;;30.60;58.30;;;;;;5042650;28;20255;-77
2021/08/24 13:31:23;;;;;;;;;;;30.80;58.20;;;;;;5039642;28;19904;-77
2021/08/24 13:34:00;;;;;;;;;;;30.70;58.20;;;;;;5048091;28;19909;-82
2021/08/24 13:36:45;;;;;;;;;;;30.50;58.20;;;;;;5040977;28;20025;-82
2021/08/24 13:39:10;;;;;;;;;;;30.00;58.10;;;;;;5030779;28;19923;-79
2021/08/24 13:41:38;;;;;;;;;;;29.50;58.30;;;;;;5042014;28;20003;-77
2021/08/24 13:44:10;;;;;;;;;;;29.00;58.00;;;;;;5035146;28;19917;-80
2021/08/24 13:46:37;;;;;;;;;;;28.50;58.20;;;;;;5047194;28;19955;-77
2021/08/24 13:49:08;;;;;;;;;;;28.10;58.30;;;;;;5046187;28;19909;-80
2021/08/24 13:51:44;;;;;;;;;;;27.60;58.30;;;;;;5045445;28;20477;-77
2021/08/24 13:54:10;;;;;;;;;;;27.30;58.80;;;;;;5045591;28;19905;-76
2021/08/24 13:56:38;;;;;;;;;;;26.90;58.80;;;;;;5046132;28;19953;-77
2021/08/24 13:59:05;;;;;;;;;;;26.60;58.80;;;;;;5045720;28;20387;-77
2021/08/24 14:01:41;;;;;;;;;;;26.20;58.90;;;;;;5040599;28;19958;-76
2021/08/24 14:04:10;;;;;;;;;;;25.90;59.20;;;;;;5036432;28;19916;-76
2021/08/24 14:06:37;;;;;;;;;;;25.80;59.40;;;;;;5034671;28;20366;-78
2021/08/24 14:09:08;;;;;;;;;;;25.70;59.30;;;;;;5045296;28;19996;-78
2021/08/24 14:11:34;;;;;;;;;;;25.40;59.50;;;;;;5050100;28;20363;-77
2021/08/24 14:13:59;;;;;;;;;;;25.10;59.90;;;;;;5047025;28;19909;-74
2021/08/24 14:16:27;;;;;;;;;;;24.80;60.10;;;;;;5036857;28;19928;-77
2021/08/24 14:19:03;;;;;;;;;;;24.60;60.50;;;;;;5043363;28;19912;-74
2021/08/24 14:21:30;;;;;;;;;;;24.60;60.70;;;;;;5033492;28;19920;-78
2021/08/24 14:23:58;;;;;;;;;;;24.50;60.80;;;;;;5029407;28;19917;-76
2021/08/24 14:26:29;;;;;;;;;;;24.40;61.10;;;;;;5037701;28;19955;-79
2021/08/24 14:28:55;;;;;;;;;;;24.40;61.60;;;;;;5039495;28;20299;-75